Time;durP1;ratioP1;P1;durP2;ratioP2;P2;SDS_P1;SDS_P2;PMS_P1;PMS_P2;Temp;Humidity;BMP_temperature;BMP_pressure;BME280_temperature;BME280_humidity;BME280_pressure;Samples;Min_cycle;Max_cycle;Signal;HPM_P1;HPM_P2
2022/05/10 00:00:06;;;;;;;16.05;7.43;;;;;;;16.09;58.27;100059.13;5020005;28;20092;-46
2022/05/10 00:02:53;;;;;;;14.63;6.75;;;;;;;16.03;58.64;100053.19;5024234;28;20051;-46
2022/05/10 00:05:27;;;;;;;15.00;6.20;;;;;;;16.01;58.35;100052.34;5027406;28;20136;-43
2022/05/10 00:07:55;;;;;;;20.42;6.57;;;;;;;15.98;58.49;100051.59;5022428;28;20543;-48
2022/05/10 00:10:39;;;;;;;13.80;6.07;;;;;;;15.97;58.38;100039.44;5020870;28;20393;-43
2022/05/10 00:13:06;;;;;;;12.68;6.13;;;;;;;15.90;58.84;100030.84;5025059;28;20050;-46
2022/05/10 00:15:33;;;;;;;13.18;6.22;;;;;;;15.88;59.24;100022.19;5025332;28;20965;-46
2022/05/10 00:18:01;;;;;;;12.52;6.03;;;;;;;15.87;58.81;100020.50;5022231;28;20382;-48
2022/05/10 00:20:30;;;;;;;14.80;6.78;;;;;;;15.83;58.59;100024.91;5015810;28;20050;-45
2022/05/10 00:23:15;;;;;;;13.57;6.00;;;;;;;15.82;58.75;100025.81;5017866;28;20107;-45
2022/05/10 00:25:44;;;;;;;14.52;6.32;;;;;;;15.83;58.57;100024.91;5020009;28;20050;-46
2022/05/10 00:28:28;;;;;;;13.18;6.60;;;;;;;15.78;59.01;100032.84;5026260;28;20566;-43
2022/05/10 00:30:57;;;;;;;15.43;6.85;;;;;;;15.77;59.03;100019.88;5025673;28;20141;-44
2022/05/10 00:33:42;;;;;;;16.27;7.32;;;;;;;15.76;59.03;100028.56;5010694;28;20061;-43
2022/05/10 00:36:14;;;;;;;16.50;6.55;;;;;;;15.75;58.74;100021.66;5006784;28;20053;-44
2022/05/10 00:38:42;;;;;;;14.50;6.60;;;;;;;15.73;58.84;100024.28;5003781;28;20526;-44
2022/05/10 00:44:35;;;;;;;14.13;7.20;;;;;;;15.72;58.55;100021.72;5157281;27;20386;-45
2022/05/10 00:47:13;;;;;;;15.43;6.95;;;;;;;15.71;58.49;100022.63;5076066;28;20045;-45
2022/05/10 00:49:53;;;;;;;16.13;7.97;;;;;;;15.68;58.67;100029.63;5075259;28;20048;-44
2022/05/10 00:55:17;;;;;;;15.73;6.75;;;;;;;15.64;58.84;100011.47;5017815;27;20403;-43
2022/05/10 00:57:51;;;;;;;14.30;6.90;;;;;;;15.64;58.43;100022.75;4989581;28;20047;-45
2022/05/10 01:00:22;;;;;;;15.55;7.18;;;;;;;15.61;58.67;100020.25;4993099;28;20120;-44
2022/05/10 01:03:28;;;;;;;18.98;6.68;;;;;;;15.55;58.95;100021.25;4978858;28;20226;-44
2022/05/10 01:06:09;;;;;;;14.20;6.43;;;;;;;15.57;58.84;100010.75;5007702;28;20487;-42
2022/05/10 01:11:25;;;;;;;16.85;7.10;;;;;;;15.57;58.66;100013.34;5023962;28;20407;-48
2022/05/10 01:13:59;;;;;;;13.55;6.18;;;;;;;15.55;58.76;99999.50;5020218;28;20131;-44
2022/05/10 01:16:26;;;;;;;14.90;6.57;;;;;;;15.53;58.32;100001.28;5016855;28;20057;-43
2022/05/10 01:18:53;;;;;;;11.30;5.45;;;;;;;15.48;58.77;99992.69;5019898;28;20054;-45
2022/05/10 01:29:55;;;;;;;13.40;6.20;;;;;;;15.56;58.43;99977.72;5047358;28;20405;-46
2022/05/10 01:35:23;;;;;;;14.45;6.43;;;;;;;15.38;58.49;99982.50;4999185;28;20148;-45
2022/05/10 01:37:55;;;;;;;15.52;6.50;;;;;;;15.35;58.49;99974.72;5007380;28;20100;-45
2022/05/10 01:43:07;;;;;;;15.38;7.15;;;;;;;15.28;58.41;99954.91;5031091;28;20403;-45
2022/05/10 01:45:39;;;;;;;13.77;5.63;;;;;;;15.28;58.08;99965.34;5015407;28;20116;-44
2022/05/10 01:48:09;;;;;;;12.15;6.05;;;;;;;15.25;58.41;99970.63;5016791;28;20091;-44
2022/05/10 01:51:15;;;;;;;12.27;6.28;;;;;;;15.19;58.40;99960.34;5017438;28;20049;-47
2022/05/10 01:53:43;;;;;;;12.75;5.45;;;;;;;15.23;57.99;99936.72;4997009;28;20735;-47
2022/05/10 01:56:15;;;;;;;12.13;5.47;;;;;;;15.22;58.33;99945.47;4998320;28;20550;-45
2022/05/10 01:58:43;;;;;;;12.05;5.38;;;;;;;15.20;58.37;99946.41;5009617;28;20057;-46
2022/05/10 02:01:19;;;;;;;10.73;5.22;;;;;;;15.14;58.80;99942.19;5008120;28;20509;-43
2022/05/10 02:03:58;;;;;;;;;;;;;;;15.01;59.18;99949.44;5008502;28;20073;-46
2022/05/10 02:11:44;;;;;;;12.98;5.05;;;;;;;15.03;58.43;99938.06;5043322;28;20396;-43
2022/05/10 02:19:46;;;;;;;11.60;5.25;;;;;;;15.04;58.62;99928.50;4978831;28;20418;-44
2022/05/10 02:22:22;;;;;;;15.73;6.60;;;;;;;15.01;58.57;99937.25;4956129;28;20047;-46
2022/05/10 02:24:55;;;;;;;12.50;5.00;;;;;;;14.98;58.52;99937.31;4975620;28;20104;-45
2022/05/10 02:27:29;;;;;;;10.50;5.00;;;;;;;14.96;58.95;99927.81;4974295;28;20051;-44
2022/05/10 02:30:03;;;;;;;11.07;4.70;;;;;;;14.94;58.52;99924.38;4976651;28;20446;-45
2022/05/10 02:35:23;;;;;;;11.80;5.28;;;;;;;14.83;58.70;99917.66;4974826;28;20728;-45
2022/05/10 02:37:50;;;;;;;11.95;4.65;;;;;;;14.80;58.52;99912.53;4982799;28;20149;-45
2022/05/10 02:40:17;;;;;;;12.43;4.85;;;;;;;14.77;58.85;99920.41;4979533;28;20055;-45
2022/05/10 02:42:47;;;;;;;9.02;4.50;;;;;;;14.77;59.29;99912.59;4975265;28;20101;-42
2022/05/10 02:45:19;;;;;;;11.88;4.68;;;;;;;14.75;59.11;99906.50;4991362;28;20092;-44
2022/05/10 02:47:48;;;;;;;10.75;3.72;;;;;;;14.74;58.57;99903.06;4978111;28;20054;-42
2022/05/10 02:52:55;;;;;;;9.95;4.45;;;;;;;14.71;58.75;99897.03;5023328;28;20422;-46
2022/05/10 02:55:30;;;;;;;9.23;4.13;;;;;;;14.71;58.50;99904.84;5007740;28;20054;-50
2022/05/10 02:58:01;;;;;;;9.55;4.30;;;;;;;14.63;58.49;99898.06;5006605;28;20100;-46
2022/05/10 03:00:28;;;;;;;9.20;4.25;;;;;;;14.61;59.32;99892.03;5007251;28;20782;-45
2022/05/10 03:03:04;;;;;;;10.82;4.85;;;;;;;14.60;59.37;99892.94;5010568;28;20748;-44
2022/05/10 03:05:30;;;;;;;9.73;4.03;;;;;;;14.58;58.95;99889.50;5012023;28;20049;-42
2022/05/10 03:07:57;;;;;;;11.77;4.57;;;;;;;14.56;59.20;99882.59;5002367;28;20058;-45
2022/05/10 03:10:28;;;;;;;10.70;4.57;;;;;;;14.55;59.20;99881.75;5001625;28;20058;-45
2022/05/10 03:12:54;;;;;;;14.65;6.03;;;;;;;14.54;58.95;99877.44;5007753;28;20461;-44
2022/05/10 03:15:21;;;;;;;12.25;4.53;;;;;;;14.51;58.91;99882.69;5012673;28;20045;-44
2022/05/10 03:17:48;;;;;;;10.00;4.85;;;;;;;14.48;58.57;99885.38;5007887;28;20050;-43
2022/05/10 03:20:14;;;;;;;11.13;4.70;;;;;;;14.46;59.28;99894.97;5014278;28;20065;-44
2022/05/10 03:22:47;;;;;;;8.48;3.75;;;;;;;14.44;59.17;99894.16;5006842;28;20126;-45
2022/05/10 03:25:15;;;;;;;9.48;4.22;;;;;;;14.44;59.37;99894.16;4998690;28;20096;-44
2022/05/10 03:27:42;;;;;;;12.32;5.57;;;;;;;14.43;59.46;99892.44;5005408;28;20713;-44
2022/05/10 03:30:09;;;;;;;11.48;4.05;;;;;;;14.42;59.57;99895.94;5012567;28;20050;-46
2022/05/10 03:32:36;;;;;;;9.05;4.45;;;;;;;14.43;59.15;99887.22;5010941;28;20627;-43
2022/05/10 03:35:03;;;;;;;9.85;4.07;;;;;;;14.39;59.25;99879.47;5007721;28;20108;-45
2022/05/10 03:37:31;;;;;;;7.43;3.40;;;;;;;14.38;59.19;99869.94;5009434;28;20452;-44
2022/05/10 03:39:59;;;;;;;10.13;3.88;;;;;;;14.38;59.03;99854.31;5006269;28;20460;-42
2022/05/10 03:42:26;;;;;;;8.98;3.97;;;;;;;14.38;59.37;99863.88;5000948;28;20054;-44
2022/05/10 03:44:53;;;;;;;10.13;4.72;;;;;;;14.37;58.84;99872.56;4984829;28;20058;-46
2022/05/10 03:47:24;;;;;;;11.23;4.75;;;;;;;14.30;58.96;99861.44;5002646;28;20050;-46
2022/05/10 03:49:50;;;;;;;10.07;4.50;;;;;;;14.30;58.94;99861.44;5005370;28;20107;-43
2022/05/10 03:52:17;;;;;;;11.10;4.72;;;;;;;14.30;59.71;99856.22;5012770;28;20069;-46
2022/05/10 03:54:44;;;;;;;10.75;4.05;;;;;;;14.29;58.97;99859.72;5001989;28;20046;-43
2022/05/10 03:57:11;;;;;;;7.35;3.45;;;;;;;14.26;59.14;99859.78;5004284;28;20053;-45
2022/05/10 03:59:41;;;;;;;8.48;3.83;;;;;;;14.25;59.77;99858.91;5006012;28;20050;-43
2022/05/10 04:02:10;;;;;;;8.93;4.22;;;;;;;14.27;58.84;99843.25;5009915;28;20058;-44
2022/05/10 04:04:38;;;;;;;9.93;5.07;;;;;;;14.27;59.59;99856.28;5000885;28;20050;-43
2022/05/10 04:07:05;;;;;;;9.45;5.05;;;;;;;14.26;58.92;99851.97;4989090;28;20125;-43
2022/05/10 04:09:50;;;;;;;8.38;3.83;;;;;;;14.22;59.15;99852.94;4988075;28;20526;-42
2022/05/10 04:12:16;;;;;;;12.18;5.10;;;;;;;14.19;59.25;99847.78;4990259;28;20108;-45
2022/05/10 04:14:43;;;;;;;9.45;4.57;;;;;;;14.19;59.62;99860.81;4997928;28;20073;-46
2022/05/10 04:17:10;;;;;;;9.75;4.28;;;;;;;14.17;59.56;99859.97;4994819;28;20046;-44
2022/05/10 04:19:36;;;;;;;9.50;4.75;;;;;;;14.18;59.05;99851.28;4999718;28;20050;-44
2022/05/10 04:22:04;;;;;;;10.88;4.93;;;;;;;14.17;58.90;99866.03;5000054;28;20046;-44
2022/05/10 04:24:30;;;;;;;9.25;4.05;;;;;;;14.13;60.11;99865.25;4981639;28;20050;-46
2022/05/10 04:27:00;;;;;;;12.38;4.35;;;;;;;14.09;59.42;99871.41;4992909;28;20197;-43
2022/05/10 04:29:28;;;;;;;9.80;4.13;;;;;;;14.09;59.64;99865.34;4984821;28;20081;-44
2022/05/10 04:31:54;;;;;;;9.93;4.13;;;;;;;14.07;60.05;99870.59;4991869;28;20112;-48
2022/05/10 04:34:21;;;;;;;9.25;4.05;;;;;;;14.07;59.89;99860.16;4989129;28;20101;-46
2022/05/10 04:36:48;;;;;;;9.32;3.65;;;;;;;14.06;60.19;99858.47;4986661;28;20050;-46
2022/05/10 04:39:14;;;;;;;8.63;4.05;;;;;;;14.05;60.65;99861.94;4996658;28;20050;-44
2022/05/10 04:41:48;;;;;;;14.07;4.30;;;;;;;14.02;60.25;99851.59;4991271;28;20046;-46
2022/05/10 04:44:15;;;;;;;9.43;3.80;;;;;;;14.02;60.49;99862.00;4993374;28;20046;-44
2022/05/10 04:46:42;;;;;;;13.30;4.60;;;;;;;14.02;60.65;99856.81;4991860;28;20046;-45
2022/05/10 04:49:12;;;;;;;10.60;4.07;;;;;;;14.00;60.23;99867.25;4993344;28;20057;-46
2022/05/10 04:51:39;;;;;;;8.90;4.40;;;;;;;13.98;60.17;99861.19;4994193;28;20153;-46
2022/05/10 04:54:07;;;;;;;10.43;4.03;;;;;;;13.97;60.78;99864.69;4986477;28;20132;-50
2022/05/10 04:56:34;;;;;;;7.93;3.95;;;;;;;13.97;61.68;99859.50;4982639;28;20054;-44
2022/05/10 04:59:01;;;;;;;9.98;3.38;;;;;;;13.95;60.44;99865.63;5003600;28;20108;-45
2022/05/10 05:01:30;;;;;;;7.80;4.18;;;;;;;13.96;61.34;99862.13;4991556;28;20678;-49
2022/05/10 05:03:59;;;;;;;8.90;4.45;;;;;;;13.97;61.35;99863.84;4994795;28;20062;-45
2022/05/10 05:06:27;;;;;;;8.45;3.72;;;;;;;13.97;61.67;99859.50;4992117;28;20131;-44
2022/05/10 05:08:54;;;;;;;9.98;5.05;;;;;;;13.98;60.91;99865.53;4995571;28;20106;-44
2022/05/10 05:11:21;;;;;;;9.73;3.75;;;;;;;13.97;61.86;99858.63;4967343;28;20054;-44
2022/05/10 05:13:47;;;;;;;8.15;3.22;;;;;;;13.99;61.54;99862.06;4988164;28;20049;-46
2022/05/10 05:16:14;;;;;;;6.65;3.17;;;;;;;13.98;60.95;99860.34;4988752;28;20038;-47
2022/05/10 05:18:41;;;;;;;8.75;4.07;;;;;;;14.00;61.85;99850.75;4986522;28;20060;-48
2022/05/10 05:21:08;;;;;;;7.80;3.83;;;;;;;14.01;61.82;99849.84;4993818;28;20176;-44
2022/05/10 05:23:35;;;;;;;8.93;4.10;;;;;;;13.99;61.27;99854.25;4995920;28;20097;-47
2022/05/10 05:26:01;;;;;;;8.35;3.55;;;;;;;14.04;62.09;99852.41;4981908;28;20050;-45
2022/05/10 05:28:29;;;;;;;7.85;3.70;;;;;;;14.03;61.78;99847.22;4993935;28;20057;-45
2022/05/10 05:30:57;;;;;;;8.73;3.53;;;;;;;14.06;62.24;99848.03;4990063;28;20132;-44
2022/05/10 05:33:24;;;;;;;8.93;3.50;;;;;;;14.07;61.15;99841.94;4999242;28;20049;-45
2022/05/10 05:35:51;;;;;;;8.77;3.75;;;;;;;14.10;61.55;99839.28;4995589;28;20363;-45
2022/05/10 05:38:17;;;;;;;8.98;3.65;;;;;;;14.10;62.25;99849.69;4998718;28;20096;-45
2022/05/10 05:40:44;;;;;;;8.23;3.67;;;;;;;14.11;61.72;99851.41;4989244;28;20042;-44
2022/05/10 05:43:18;;;;;;;8.30;3.30;;;;;;;14.11;62.75;99864.41;4983412;28;20082;-43
2022/05/10 05:45:45;;;;;;;8.25;3.55;;;;;;;14.12;61.68;99868.72;4985308;28;20097;-45
2022/05/10 05:48:12;;;;;;;9.65;3.97;;;;;;;14.12;62.04;99871.34;4991365;28;20046;-46
2022/05/10 05:50:39;;;;;;;9.38;3.83;;;;;;;14.13;62.19;99870.47;4982077;28;20050;-44
2022/05/10 05:53:05;;;;;;;8.15;3.92;;;;;;;14.12;62.87;99881.75;4989339;28;20050;-43
2022/05/10 05:55:32;;;;;;;8.32;3.88;;;;;;;14.10;63.60;99875.72;4980440;28;20062;-49
2022/05/10 05:57:59;;;;;;;8.57;3.63;;;;;;;14.14;62.97;99871.31;4979697;28;22388;-43
2022/05/10 06:00:26;;;;;;;8.50;3.80;;;;;;;14.16;63.04;99871.28;4983929;28;20057;-45
2022/05/10 06:02:54;;;;;;;8.95;3.45;;;;;;;14.18;63.13;99878.16;4985760;28;20048;-46
2022/05/10 06:05:23;;;;;;;6.35;3.45;;;;;;;14.24;62.87;99882.41;4982966;28;20050;-47
2022/05/10 06:07:50;;;;;;;8.93;4.00;;;;;;;14.25;63.30;99873.69;4979852;28;20058;-46
2022/05/10 06:10:17;;;;;;;8.10;3.75;;;;;;;14.28;62.79;99884.03;4983716;28;20049;-45
2022/05/10 06:12:44;;;;;;;9.38;4.07;;;;;;;14.29;63.37;99891.00;4984273;28;20077;-44
2022/05/10 06:15:15;;;;;;;7.38;4.07;;;;;;;14.26;62.91;99886.69;4984303;28;20565;-46
2022/05/10 06:17:44;;;;;;;8.88;4.07;;;;;;;14.29;63.00;99880.56;4981302;28;20054;-45
2022/05/10 06:20:13;;;;;;;9.45;3.88;;;;;;;14.33;62.69;99871.81;4984338;28;20072;-47
2022/05/10 06:22:44;;;;;;;11.23;4.05;;;;;;;14.39;63.06;99876.88;4978445;28;20510;-44
2022/05/10 06:25:15;;;;;;;10.55;3.72;;;;;;;14.46;62.74;99874.13;4989730;28;20054;-47
2022/05/10 06:27:42;;;;;;;8.55;3.80;;;;;;;14.56;62.55;99870.41;4992047;28;20470;-47
2022/05/10 06:30:09;;;;;;;11.38;4.88;;;;;;;14.62;62.92;99867.69;4987654;28;20081;-48
2022/05/10 06:32:35;;;;;;;7.30;3.35;;;;;;;14.67;62.76;99874.53;4980433;28;20475;-47
2022/05/10 06:35:03;;;;;;;7.60;3.75;;;;;;;14.69;62.62;99867.56;4993380;28;20088;-44
2022/05/10 06:40:19;;;;;;;9.00;3.40;;;;;;;14.67;63.29;99877.16;4986915;28;20051;-44
2022/05/10 06:42:45;;;;;;;8.77;3.85;;;;;;;14.64;62.72;99868.53;4979494;28;20059;-45
2022/05/10 06:45:15;;;;;;;11.52;4.20;;;;;;;14.69;63.08;99873.59;4981555;28;20050;-47
2022/05/10 06:47:46;;;;;;;10.48;3.72;;;;;;;14.75;62.97;99867.41;4991277;28;20534;-46
2022/05/10 06:50:16;;;;;;;7.45;3.33;;;;;;;14.77;63.07;99882.13;4989270;28;20054;-46
2022/05/10 06:52:43;;;;;;;7.47;3.47;;;;;;;14.86;62.59;99875.03;4976381;28;20096;-43
2022/05/10 06:55:14;;;;;;;7.90;3.50;;;;;;;14.96;62.76;99873.91;4988428;28;20054;-44
2022/05/10 06:57:40;;;;;;;10.63;3.28;;;;;;;15.04;62.78;99871.13;4984809;28;20061;-46
2022/05/10 07:00:11;;;;;;;7.82;3.17;;;;;;;15.12;62.82;99871.78;4993595;28;20387;-44
2022/05/10 07:02:38;;;;;;;7.90;3.08;;;;;;;15.19;62.31;99882.09;4979535;28;20423;-44
2022/05/10 07:05:07;;;;;;;6.22;2.90;;;;;;;15.26;63.14;99886.22;4990609;28;20185;-43
2022/05/10 07:07:35;;;;;;;6.32;2.92;;;;;;;15.29;62.60;99883.53;4983793;28;20061;-45
2022/05/10 07:10:08;;;;;;;5.57;2.53;;;;;;;15.30;62.74;99895.69;4980377;28;20050;-43
2022/05/10 07:12:36;;;;;;;5.03;2.50;;;;;;;15.28;62.48;99889.66;4987038;28;20108;-46
2022/05/10 07:15:05;;;;;;;5.82;2.55;;;;;;;15.25;62.98;99884.53;4990700;28;20058;-43
2022/05/10 07:17:33;;;;;;;4.43;2.20;;;;;;;15.25;62.50;99881.91;4985967;28;20068;-46
2022/05/10 07:20:02;;;;;;;7.18;2.05;;;;;;;15.18;62.75;99885.56;4980352;28;20136;-43
2022/05/10 07:22:29;;;;;;;4.50;1.95;;;;;;;15.24;62.33;99885.41;4965742;28;20072;-43
2022/05/10 07:24:56;;;;;;;6.03;2.13;;;;;;;15.25;62.21;99888.00;4978062;28;20458;-47
2022/05/10 07:27:22;;;;;;;2.97;1.55;;;;;;;15.24;62.05;99886.28;4994082;28;20128;-43
2022/05/10 07:29:49;;;;;;;6.25;2.08;;;;;;;15.26;62.40;99894.06;4997626;28;20050;-47
2022/05/10 07:32:16;;;;;;;3.30;1.40;;;;;;;15.22;62.09;99884.59;4989331;28;20053;-44
2022/05/10 07:34:43;;;;;;;4.43;1.98;;;;;;;15.25;61.55;99884.53;4992340;28;20050;-43
2022/05/10 07:37:10;;;;;;;6.88;1.75;;;;;;;15.31;62.12;99892.22;4999288;28;20050;-44
2022/05/10 07:39:36;;;;;;;3.80;1.45;;;;;;;15.36;61.69;99884.25;4995037;28;20046;-45
2022/05/10 07:42:04;;;;;;;2.33;1.80;;;;;;;15.40;60.96;99886.75;4990921;28;20042;-43
2022/05/10 07:44:33;;;;;;;2.85;1.05;;;;;;;15.38;60.70;99892.91;4989719;28;20140;-45
2022/05/10 07:47:00;;;;;;;3.88;1.33;;;;;;;15.42;60.93;99890.19;4985828;28;20049;-44
2022/05/10 07:49:27;;;;;;;3.47;1.13;;;;;;;15.44;59.72;99886.66;4997852;28;20058;-46
2022/05/10 07:51:53;;;;;;;3.92;1.02;;;;;;;15.50;59.75;99886.53;4991271;28;20054;-47
2022/05/10 07:54:20;;;;;;;4.53;1.25;;;;;;;15.57;59.30;99885.44;4986958;28;21994;-46
2022/05/10 07:56:47;;;;;;;5.03;1.23;;;;;;;15.64;59.38;99888.78;4988049;28;20062;-43
2022/05/10 07:59:13;;;;;;;3.53;1.38;;;;;;;15.67;58.40;99894.75;4984011;28;20105;-42
2022/05/10 08:01:40;;;;;;;3.80;1.10;;;;;;;15.71;58.18;99900.78;4982026;28;20050;-45
2022/05/10 08:04:08;;;;;;;4.00;1.08;;;;;;;15.75;57.71;99891.97;4987575;28;20088;-48
2022/05/10 08:06:34;;;;;;;5.10;0.85;;;;;;;15.84;57.05;99890.81;5001251;28;20054;-44
2022/05/10 08:09:01;;;;;;;3.10;0.85;;;;;;;15.92;56.31;99883.66;4987364;28;20076;-46
2022/05/10 08:11:27;;;;;;;2.95;0.80;;;;;;;16.02;56.37;99899.09;5006091;28;20100;-44
2022/05/10 08:13:59;;;;;;;3.08;0.80;;;;;;;16.12;56.17;99894.47;5002124;28;20046;-46
2022/05/10 08:16:31;;;;;;;2.55;1.13;;;;;;;16.22;55.77;99903.78;5004172;28;20058;-45
2022/05/10 08:18:58;;;;;;;2.25;0.70;;;;;;;16.29;54.52;99901.84;4995420;28;20058;-46
2022/05/10 08:21:25;;;;;;;4.30;0.80;;;;;;;16.34;54.46;99897.31;4996330;28;20070;-44
2022/05/10 08:23:55;;;;;;;2.83;0.60;;;;;;;16.39;53.64;99897.19;4997765;28;20046;-46
2022/05/10 08:26:23;;;;;;;2.90;0.80;;;;;;;16.46;53.49;99898.72;5000496;28;20073;-44
2022/05/10 08:28:50;;;;;;;1.85;0.40;;;;;;;16.61;52.37;99900.00;4992189;28;20443;-46
2022/05/10 08:31:24;;;;;;;2.22;0.40;;;;;;;16.73;52.58;99908.38;4986435;28;20044;-44
2022/05/10 08:34:08;;;;;;;1.95;0.50;;;;;;;16.84;51.27;99908.91;4990793;28;20123;-48
2022/05/10 08:36:35;;;;;;;3.90;0.75;;;;;;;16.99;51.67;99907.56;4991910;28;20050;-44
2022/05/10 08:39:03;;;;;;;3.28;0.75;;;;;;;17.14;50.93;99905.41;4999191;28;20534;-43
2022/05/10 08:44:38;;;;;;;3.13;0.55;;;;;;;17.31;48.45;99912.69;5156301;27;20395;-47
2022/05/10 08:47:07;;;;;;;1.90;0.68;;;;;;;17.36;47.94;99917.78;5097814;28;20672;-47
2022/05/10 08:52:14;;;;;;;3.17;1.10;;;;;;;17.60;47.10;99916.13;5043113;28;20410;-46
2022/05/10 08:54:43;;;;;;;1.85;1.30;;;;;;;17.75;47.12;99916.47;5018583;28;20050;-45
2022/05/10 09:02:52;;;;;;;1.13;0.32;;;;;;;18.09;44.55;99925.78;5025941;27;20909;-45
2022/05/10 09:05:24;;;;;;;3.47;0.50;;;;;;;18.27;44.45;99926.06;5038460;28;20048;-47
2022/05/10 09:10:37;;;;;;;2.10;0.32;;;;;;;19.17;43.79;99934.88;5050440;27;20404;-46
2022/05/10 09:13:10;;;;;;;2.47;0.40;;;;;;;19.71;43.40;99934.41;5027315;28;20449;-45
2022/05/10 09:15:44;;;;;;;5.97;0.65;;;;;;;20.35;43.56;99923.78;5026981;28;20049;-45
2022/05/10 09:18:36;;;;;;;3.15;0.45;;;;;;;20.98;41.43;99932.31;5026320;28;20054;-45
2022/05/10 09:26:42;;;;;;;2.80;0.65;;;;;;;21.66;38.19;99912.31;5025754;28;20407;-47
2022/05/10 09:37:55;;;;;;;3.08;0.47;;;;;;;22.63;36.55;99904.63;5042712;27;20394;-51
2022/05/10 09:48:42;;;;;;;2.83;0.75;;;;;;;22.65;36.22;99905.38;5050760;27;20395;-48
2022/05/10 09:54:19;;;;;;;4.72;0.63;;;;;;;22.69;36.05;99901.63;5026518;28;20407;-46
2022/05/10 09:56:52;;;;;;;3.47;0.60;;;;;;;22.96;35.61;99898.38;5023880;28;20461;-47
2022/05/10 10:01:58;;;;;;;6.00;2.03;;;;;;;23.48;35.61;99909.53;5032005;28;20402;-52
2022/05/10 10:04:32;;;;;;;3.38;2.28;;;;;;;23.71;35.24;99904.66;5055560;28;20486;-46
2022/05/10 10:09:41;;;;;;;4.38;0.68;;;;;;;24.28;35.47;99905.63;5056996;27;20418;-48
2022/05/10 10:12:14;;;;;;;;;;;;;;;24.41;33.40;99902.22;5018557;28;20127;-47
2022/05/10 10:14:44;;;;;;;2.65;0.40;;;;;;;24.44;34.46;99902.00;5015781;28;19929;-51
2022/05/10 10:17:19;;;;;;;2.72;0.52;;;;;;;24.41;32.49;99912.81;5014496;28;20083;-50
2022/05/10 10:19:51;;;;;;;5.88;0.50;;;;;;;24.28;33.96;99912.72;5020831;28;20049;-45
2022/05/10 10:25:04;;;;;;;5.40;0.70;;;;;;;24.19;33.88;99919.44;5049707;27;20163;-48
2022/05/10 10:30:20;;;;;;;4.72;0.60;;;;;;;24.38;33.29;99914.69;5031770;28;20407;-49
2022/05/10 10:32:53;;;;;;;4.78;0.80;;;;;;;24.49;33.79;99905.22;5034045;28;20042;-50
2022/05/10 10:35:34;;;;;;;2.97;1.02;;;;;;;24.58;33.33;99915.22;5007098;28;20064;-56
2022/05/10 10:38:11;;;;;;;3.60;1.02;;;;;;;24.54;32.45;99902.25;4986090;28;20073;-53
2022/05/10 10:40:52;;;;;;;4.75;1.00;;;;;;;24.63;33.70;99902.50;5003465;28;20046;-49
2022/05/10 10:43:28;;;;;;;5.65;0.70;;;;;;;24.73;33.27;99912.53;5000660;28;20112;-45
2022/05/10 10:49:17;;;;;;;4.95;1.13;;;;;;;24.77;33.39;99903.44;5045691;27;20406;-51
2022/05/10 10:51:44;;;;;;;5.38;1.40;;;;;;;24.71;33.35;99906.47;5020434;28;20103;-48
2022/05/10 10:54:30;;;;;;;3.38;0.80;;;;;;;24.59;33.71;99901.00;5015995;28;20108;-48
2022/05/10 11:05:17;;;;;;;2.10;0.82;;;;;;;24.38;32.70;99893.50;5054535;27;20398;-50
2022/05/10 11:11:21;;;;;;;5.13;2.03;;;;;;;24.43;32.78;99889.72;5052639;27;20396;-45
2022/05/10 11:20:02;;;;;;;4.80;0.70;;;;;;;24.36;33.62;99900.72;5065092;27;20508;-49
2022/05/10 11:28:58;;;;;;;5.43;0.90;;;;;;;24.38;33.39;99897.94;5001016;28;20803;-45
2022/05/10 11:36:44;;;;;;;4.38;1.13;;;;;;;24.82;31.69;99885.44;5021437;28;20404;-49
2022/05/10 11:39:35;;;;;;;4.68;1.30;;;;;;;24.61;32.77;99883.25;5015208;28;20068;-49
2022/05/10 11:42:33;;;;;;;4.03;1.27;;;;;;;24.70;33.48;99881.81;5005401;28;20525;-42
2022/05/10 11:45:40;;;;;;;2.28;1.10;;;;;;;24.59;33.26;99869.25;5007752;28;20042;-45
2022/05/10 11:56:28;;;;;;;3.20;2.35;;;;;;;24.80;33.25;99876.75;5040236;27;20922;-47
2022/05/10 11:58:56;;;;;;;7.82;2.22;;;;;;;24.71;32.82;99872.03;5013084;28;20499;-44
2022/05/10 12:23:17;;;;;;;3.00;0.98;;;;;;;24.59;32.98;99863.94;5008256;28;20045;-48
2022/05/10 12:26:00;;;;;;;3.70;1.20;;;;;;;24.33;32.93;99861.22;5012523;28;20049;-47
2022/05/10 12:33:58;;;;;;;3.25;0.85;;;;;;;24.38;34.23;99845.88;5015367;27;20792;-45
2022/05/10 12:36:32;;;;;;;2.70;2.13;;;;;;;24.38;33.72;99851.16;5007766;28;20053;-51
2022/05/10 12:39:23;;;;;;;4.68;1.77;;;;;;;24.24;32.89;99836.16;5007423;28;20050;-47
2022/05/10 12:52:39;;;;;;;6.07;1.85;;;;;;;23.99;32.45;99856.22;5044513;28;20408;-45
2022/05/10 12:55:10;;;;;;;1.98;0.82;;;;;;;24.02;33.74;99841.94;5003879;28;20042;-45
2022/05/10 13:00:25;;;;;;;3.30;1.25;;;;;;;24.06;33.58;99845.22;5041628;28;20880;-46
2022/05/10 13:02:59;;;;;;;3.38;0.70;;;;;;;24.10;33.61;99841.44;5037621;28;20463;-53
2022/05/10 18:07:17;;;;;;;7.55;2.17;;;;;;;19.03;37.38;99715.81;5048035;28;20389;-47
2022/05/10 18:09:44;;;;;;;33.83;15.60;;;;;;;18.98;38.26;99718.63;5009169;27;20108;-45
2022/05/10 18:12:11;;;;;;;23.08;13.52;;;;;;;18.93;38.11;99718.00;5006764;28;20057;-48
2022/05/10 18:14:37;;;;;;;95.07;51.25;;;;;;;18.88;38.53;99709.47;5009261;28;20120;-43
2022/05/10 18:17:04;;;;;;;7.75;3.15;;;;;;;18.84;37.95;99716.59;5007036;28;20054;-48
2022/05/10 18:19:31;;;;;;;58.85;29.15;;;;;;;18.68;39.03;99716.38;5006843;28;20095;-45
2022/05/10 18:21:59;;;;;;;44.10;23.20;;;;;;;18.62;38.18;99725.38;5010208;28;20049;-46
2022/05/10 18:24:27;;;;;;;84.18;41.75;;;;;;;18.57;38.79;99715.97;5002313;28;20050;-46
2022/05/10 18:26:55;;;;;;;12.43;2.47;;;;;;;18.48;38.22;99712.81;5002622;28;20046;-47
2022/05/10 18:29:26;;;;;;;38.47;23.15;;;;;;;18.37;38.70;99717.66;5003109;28;20145;-53
2022/05/10 18:31:55;;;;;;;42.47;26.27;;;;;;;18.32;39.21;99720.50;5000011;28;20073;-51
2022/05/10 18:34:24;;;;;;;7.10;3.13;;;;;;;18.26;38.91;99717.22;5002732;28;20397;-49
2022/05/10 18:36:52;;;;;;;41.22;24.23;;;;;;;18.20;39.09;99716.56;5003847;28;20050;-53
2022/05/10 18:39:22;;;;;;;4.22;1.50;;;;;;;18.15;39.49;99725.53;5002548;28;20046;-45
2022/05/10 18:41:51;;;;;;;8.45;4.10;;;;;;;18.09;39.92;99727.50;5001486;28;20105;-44
2022/05/10 18:44:21;;;;;;;14.30;8.27;;;;;;;18.03;39.61;99732.94;5002497;28;20431;-43
2022/05/10 18:46:48;;;;;;;12.73;5.60;;;;;;;17.93;40.30;99726.38;5000518;28;20042;-44
2022/05/10 18:49:16;;;;;;;11.73;5.93;;;;;;;17.89;40.63;99728.22;5002458;28;20116;-43
2022/05/10 18:51:43;;;;;;;25.83;13.52;;;;;;;17.84;40.14;99733.63;4998251;28;20065;-42
2022/05/10 18:54:10;;;;;;;8.45;4.28;;;;;;;17.76;40.67;99732.25;4998301;28;20470;-42
2022/05/10 18:56:38;;;;;;;31.08;15.43;;;;;;;17.69;40.17;99735.09;5002645;28;20047;-48
2022/05/10 18:59:05;;;;;;;31.23;16.95;;;;;;;17.59;40.71;99744.19;4998334;28;20109;-46
2022/05/10 19:01:32;;;;;;;19.45;9.35;;;;;;;17.42;40.95;99737.81;4999425;28;20544;-45
2022/05/10 19:03:59;;;;;;;5.40;1.33;;;;;;;17.38;41.14;99749.31;5002688;28;20437;-49
2022/05/10 19:06:26;;;;;;;7.55;3.50;;;;;;;17.28;41.30;99751.41;5002146;28;20046;-46
2022/05/10 19:08:53;;;;;;;5.53;1.65;;;;;;;17.23;41.34;99742.00;5003395;28;20765;-45
2022/05/10 19:11:21;;;;;;;6.53;2.50;;;;;;;17.17;40.83;99743.94;5000448;28;20054;-43
2022/05/10 19:13:48;;;;;;;5.00;2.10;;;;;;;17.08;41.15;99733.75;5000822;28;20053;-44
2022/05/10 19:16:16;;;;;;;22.20;9.02;;;;;;;17.02;41.74;99750.50;5001638;28;20042;-42
2022/05/10 19:18:43;;;;;;;22.92;12.73;;;;;;;16.94;41.53;99742.94;4990907;28;20056;-46
2022/05/10 19:21:11;;;;;;;2.88;1.23;;;;;;;16.85;41.70;99751.06;4984947;28;20058;-48
2022/05/10 19:23:39;;;;;;;5.55;1.48;;;;;;;16.77;41.91;99750.47;4990181;28;20050;-49
2022/05/10 19:26:12;;;;;;;3.10;1.02;;;;;;;16.69;41.96;99751.59;4988657;28;20085;-43
2022/05/10 19:28:44;;;;;;;17.92;7.90;;;;;;;16.61;41.79;99756.22;4989673;28;20046;-47
2022/05/10 19:31:13;;;;;;;21.08;8.55;;;;;;;16.51;42.14;99752.22;4989196;28;20415;-47
2022/05/10 19:33:42;;;;;;;5.15;2.65;;;;;;;16.38;42.74;99749.13;4986449;28;20054;-44
2022/05/10 19:36:10;;;;;;;10.65;3.50;;;;;;;16.34;42.45;99753.56;4985476;28;20081;-45
2022/05/10 19:38:37;;;;;;;3.38;1.10;;;;;;;16.26;42.67;99755.59;4988438;28;20074;-43